sensor_id;sensor_type;location;lat;lon;timestamp;P1;durP1;ratioP1;P2;durP2;ratioP2
59167;SDS011;70412;55.048;73.268;2024-02-28T00:01:57;45.42;;;19.38;;
59167;SDS011;70412;55.048;73.268;2024-02-28T00:05:00;48.05;;;19.67;;
59167;SDS011;70412;55.048;73.268;2024-02-28T00:08:03;44.97;;;17.98;;
59167;SDS011;70412;55.048;73.268;2024-02-28T00:11:06;47.88;;;18.65;;
59167;SDS011;70412;55.048;73.268;2024-02-28T00:14:08;51.30;;;19.90;;
59167;SDS011;70412;55.048;73.268;2024-02-28T00:17:14;51.17;;;18.55;;
59167;SDS011;70412;55.048;73.268;2024-02-28T00:20:17;50.75;;;19.42;;
59167;SDS011;70412;55.048;73.268;2024-02-28T00:23:19;50.30;;;20.23;;
59167;SDS011;70412;55.048;73.268;2024-02-28T00:26:25;42.17;;;17.75;;
59167;SDS011;70412;55.048;73.268;2024-02-28T00:29:28;44.88;;;18.27;;
59167;SDS011;70412;55.048;73.268;2024-02-28T00:32:30;52.72;;;19.17;;
59167;SDS011;70412;55.048;73.268;2024-02-28T00:35:32;50.00;;;19.25;;
59167;SDS011;70412;55.048;73.268;2024-02-28T00:38:35;42.67;;;18.10;;
59167;SDS011;70412;55.048;73.268;2024-02-28T00:41:38;46.03;;;18.35;;
59167;SDS011;70412;55.048;73.268;2024-02-28T00:44:40;46.45;;;18.02;;
59167;SDS011;70412;55.048;73.268;2024-02-28T00:47:44;50.25;;;18.55;;
59167;SDS011;70412;55.048;73.268;2024-02-28T00:50:49;48.53;;;18.52;;
59167;SDS011;70412;55.048;73.268;2024-02-28T00:53:52;45.72;;;19.63;;
59167;SDS011;70412;55.048;73.268;2024-02-28T00:56:54;48.63;;;18.92;;
59167;SDS011;70412;55.048;73.268;2024-02-28T00:59:57;46.78;;;17.15;;
59167;SDS011;70412;55.048;73.268;2024-02-28T01:03:00;49.50;;;18.35;;
59167;SDS011;70412;55.048;73.268;2024-02-28T01:06:05;46.75;;;18.45;;
59167;SDS011;70412;55.048;73.268;2024-02-28T01:09:08;35.28;;;15.90;;
59167;SDS011;70412;55.048;73.268;2024-02-28T01:12:10;42.83;;;16.67;;
59167;SDS011;70412;55.048;73.268;2024-02-28T01:15:13;37.05;;;15.57;;
59167;SDS011;70412;55.048;73.268;2024-02-28T01:18:17;42.08;;;15.95;;
59167;SDS011;70412;55.048;73.268;2024-02-28T01:21:20;37.20;;;17.83;;
59167;SDS011;70412;55.048;73.268;2024-02-28T01:24:22;42.67;;;18.75;;
59167;SDS011;70412;55.048;73.268;2024-02-28T01:27:25;43.05;;;19.23;;
59167;SDS011;70412;55.048;73.268;2024-02-28T01:30:27;39.58;;;18.13;;
59167;SDS011;70412;55.048;73.268;2024-02-28T01:33:32;38.92;;;16.90;;
59167;SDS011;70412;55.048;73.268;2024-02-28T01:36:34;33.38;;;16.08;;
59167;SDS011;70412;55.048;73.268;2024-02-28T01:39:37;38.63;;;15.25;;
59167;SDS011;70412;55.048;73.268;2024-02-28T01:42:40;35.42;;;15.95;;
59167;SDS011;70412;55.048;73.268;2024-02-28T01:45:42;38.78;;;16.88;;
59167;SDS011;70412;55.048;73.268;2024-02-28T01:48:46;38.15;;;17.13;;
59167;SDS011;70412;55.048;73.268;2024-02-28T01:51:49;32.47;;;15.95;;
59167;SDS011;70412;55.048;73.268;2024-02-28T01:54:52;28.30;;;13.02;;
59167;SDS011;70412;55.048;73.268;2024-02-28T01:57:55;26.13;;;12.07;;
59167;SDS011;70412;55.048;73.268;2024-02-28T02:00:58;28.95;;;12.48;;
59167;SDS011;70412;55.048;73.268;2024-02-28T02:04:03;30.98;;;12.68;;
59167;SDS011;70412;55.048;73.268;2024-02-28T02:07:06;295.45;;;65.32;;
59167;SDS011;70412;55.048;73.268;2024-02-28T02:10:09;305.02;;;63.05;;
59167;SDS011;70412;55.048;73.268;2024-02-28T02:13:13;151.55;;;35.40;;
59167;SDS011;70412;55.048;73.268;2024-02-28T02:16:17;228.60;;;49.13;;
59167;SDS011;70412;55.048;73.268;2024-02-28T02:19:21;337.50;;;75.03;;
59167;SDS011;70412;55.048;73.268;2024-02-28T02:22:38;493.45;;;110.32;;
59167;SDS011;70412;55.048;73.268;2024-02-28T02:25:47;336.55;;;68.70;;
59167;SDS011;70412;55.048;73.268;2024-02-28T02:28:50;268.05;;;57.85;;
59167;SDS011;70412;55.048;73.268;2024-02-28T02:31:53;329.30;;;73.20;;
59167;SDS011;70412;55.048;73.268;2024-02-28T02:34:56;265.00;;;54.67;;
59167;SDS011;70412;55.048;73.268;2024-02-28T02:37:58;441.17;;;96.07;;
59167;SDS011;70412;55.048;73.268;2024-02-28T02:41:01;99.68;;;25.30;;
59167;SDS011;70412;55.048;73.268;2024-02-28T02:44:04;66.80;;;20.63;;
59167;SDS011;70412;55.048;73.268;2024-02-28T02:47:07;184.70;;;46.45;;
59167;SDS011;70412;55.048;73.268;2024-02-28T02:50:10;159.32;;;43.42;;
59167;SDS011;70412;55.048;73.268;2024-02-28T02:53:12;56.20;;;17.08;;
59167;SDS011;70412;55.048;73.268;2024-02-28T02:56:15;34.83;;;13.00;;
59167;SDS011;70412;55.048;73.268;2024-02-28T02:59:20;99.07;;;33.42;;
59167;SDS011;70412;55.048;73.268;2024-02-28T03:02:23;38.57;;;16.43;;
59167;SDS011;70412;55.048;73.268;2024-02-28T03:05:41;38.80;;;15.95;;
59167;SDS011;70412;55.048;73.268;2024-02-28T03:08:44;79.85;;;29.58;;
59167;SDS011;70412;55.048;73.268;2024-02-28T03:11:47;66.57;;;25.45;;
59167;SDS011;70412;55.048;73.268;2024-02-28T03:14:49;31.85;;;13.88;;
59167;SDS011;70412;55.048;73.268;2024-02-28T03:17:52;38.00;;;15.80;;
59167;SDS011;70412;55.048;73.268;2024-02-28T03:20:54;31.98;;;13.05;;
59167;SDS011;70412;55.048;73.268;2024-02-28T03:24:09;55.67;;;17.90;;
59167;SDS011;70412;55.048;73.268;2024-02-28T03:27:11;60.25;;;18.55;;
59167;SDS011;70412;55.048;73.268;2024-02-28T03:30:14;26.08;;;10.98;;
59167;SDS011;70412;55.048;73.268;2024-02-28T03:33:17;31.45;;;12.52;;
59167;SDS011;70412;55.048;73.268;2024-02-28T03:36:19;38.85;;;14.48;;
59167;SDS011;70412;55.048;73.268;2024-02-28T03:39:22;48.97;;;17.05;;
59167;SDS011;70412;55.048;73.268;2024-02-28T03:42:25;34.33;;;13.40;;
59167;SDS011;70412;55.048;73.268;2024-02-28T03:45:28;40.13;;;14.65;;
59167;SDS011;70412;55.048;73.268;2024-02-28T03:48:34;29.43;;;12.33;;
59167;SDS011;70412;55.048;73.268;2024-02-28T03:51:40;34.85;;;12.80;;
59167;SDS011;70412;55.048;73.268;2024-02-28T03:54:43;41.50;;;15.10;;
59167;SDS011;70412;55.048;73.268;2024-02-28T03:57:47;60.60;;;23.05;;
59167;SDS011;70412;55.048;73.268;2024-02-28T04:00:50;34.60;;;13.27;;
59167;SDS011;70412;55.048;73.268;2024-02-28T04:03:53;36.00;;;13.68;;
59167;SDS011;70412;55.048;73.268;2024-02-28T04:06:56;45.58;;;16.95;;
59167;SDS011;70412;55.048;73.268;2024-02-28T04:09:58;39.47;;;18.20;;
59167;SDS011;70412;55.048;73.268;2024-02-28T04:13:01;40.58;;;18.55;;
59167;SDS011;70412;55.048;73.268;2024-02-28T04:16:03;56.45;;;21.67;;
59167;SDS011;70412;55.048;73.268;2024-02-28T04:19:06;37.08;;;15.30;;
59167;SDS011;70412;55.048;73.268;2024-02-28T04:22:09;24.17;;;11.80;;
59167;SDS011;70412;55.048;73.268;2024-02-28T04:25:12;25.88;;;10.18;;
59167;SDS011;70412;55.048;73.268;2024-02-28T04:28:14;21.48;;;9.90;;
59167;SDS011;70412;55.048;73.268;2024-02-28T04:31:17;30.38;;;11.93;;
59167;SDS011;70412;55.048;73.268;2024-02-28T04:34:20;44.83;;;16.27;;
59167;SDS011;70412;55.048;73.268;2024-02-28T04:37:23;36.60;;;12.07;;
59167;SDS011;70412;55.048;73.268;2024-02-28T04:40:25;24.80;;;10.32;;
59167;SDS011;70412;55.048;73.268;2024-02-28T04:43:28;19.38;;;8.98;;
59167;SDS011;70412;55.048;73.268;2024-02-28T04:46:31;20.85;;;8.95;;
59167;SDS011;70412;55.048;73.268;2024-02-28T04:49:36;15.65;;;8.95;;
59167;SDS011;70412;55.048;73.268;2024-02-28T04:52:41;23.33;;;10.15;;
59167;SDS011;70412;55.048;73.268;2024-02-28T04:55:44;15.63;;;6.70;;
59167;SDS011;70412;55.048;73.268;2024-02-28T04:58:46;16.75;;;6.82;;
59167;SDS011;70412;55.048;73.268;2024-02-28T05:01:49;19.55;;;8.57;;
59167;SDS011;70412;55.048;73.268;2024-02-28T05:04:53;19.75;;;9.20;;
59167;SDS011;70412;55.048;73.268;2024-02-28T05:07:55;20.08;;;8.40;;
59167;SDS011;70412;55.048;73.268;2024-02-28T05:11:10;20.27;;;9.25;;
59167;SDS011;70412;55.048;73.268;2024-02-28T05:14:13;25.60;;;10.93;;
59167;SDS011;70412;55.048;73.268;2024-02-28T05:17:15;24.88;;;10.35;;
59167;SDS011;70412;55.048;73.268;2024-02-28T05:20:19;33.33;;;13.68;;
59167;SDS011;70412;55.048;73.268;2024-02-28T05:23:21;24.55;;;10.00;;
59167;SDS011;70412;55.048;73.268;2024-02-28T05:26:25;16.13;;;7.75;;
59167;SDS011;70412;55.048;73.268;2024-02-28T05:29:27;21.35;;;9.38;;
59167;SDS011;70412;55.048;73.268;2024-02-28T05:32:44;25.20;;;9.63;;
59167;SDS011;70412;55.048;73.268;2024-02-28T05:35:47;24.52;;;10.55;;
59167;SDS011;70412;55.048;73.268;2024-02-28T05:38:50;29.48;;;14.20;;
59167;SDS011;70412;55.048;73.268;2024-02-28T05:41:53;33.22;;;13.60;;
59167;SDS011;70412;55.048;73.268;2024-02-28T05:44:56;24.23;;;10.55;;
59167;SDS011;70412;55.048;73.268;2024-02-28T05:48:01;20.45;;;9.00;;
59167;SDS011;70412;55.048;73.268;2024-02-28T05:51:03;25.30;;;8.52;;
59167;SDS011;70412;55.048;73.268;2024-02-28T05:54:06;23.80;;;9.67;;
59167;SDS011;70412;55.048;73.268;2024-02-28T05:57:21;19.23;;;9.00;;
59167;SDS011;70412;55.048;73.268;2024-02-28T06:00:23;17.33;;;8.75;;
59167;SDS011;70412;55.048;73.268;2024-02-28T06:03:26;23.15;;;10.93;;
59167;SDS011;70412;55.048;73.268;2024-02-28T06:06:29;19.48;;;8.10;;
59167;SDS011;70412;55.048;73.268;2024-02-28T06:09:31;14.65;;;7.10;;
59167;SDS011;70412;55.048;73.268;2024-02-28T06:12:34;16.50;;;7.10;;
59167;SDS011;70412;55.048;73.268;2024-02-28T06:15:36;23.95;;;9.48;;
59167;SDS011;70412;55.048;73.268;2024-02-28T06:18:39;42.33;;;14.73;;
59167;SDS011;70412;55.048;73.268;2024-02-28T06:21:41;18.20;;;8.52;;
59167;SDS011;70412;55.048;73.268;2024-02-28T06:24:45;38.00;;;12.00;;
59167;SDS011;70412;55.048;73.268;2024-02-28T06:27:48;39.08;;;13.38;;
59167;SDS011;70412;55.048;73.268;2024-02-28T06:30:50;48.35;;;13.77;;
59167;SDS011;70412;55.048;73.268;2024-02-28T06:33:53;19.14;;;8.14;;
59167;SDS011;70412;55.048;73.268;2024-02-28T06:36:56;16.27;;;7.53;;
59167;SDS011;70412;55.048;73.268;2024-02-28T06:39:58;18.67;;;8.50;;
59167;SDS011;70412;55.048;73.268;2024-02-28T06:43:01;16.60;;;8.82;;
59167;SDS011;70412;55.048;73.268;2024-02-28T06:46:04;19.45;;;8.65;;
59167;SDS011;70412;55.048;73.268;2024-02-28T06:49:07;18.55;;;9.35;;
59167;SDS011;70412;55.048;73.268;2024-02-28T06:52:09;26.58;;;10.85;;
59167;SDS011;70412;55.048;73.268;2024-02-28T06:55:12;30.50;;;12.18;;
59167;SDS011;70412;55.048;73.268;2024-02-28T06:58:16;19.02;;;8.63;;
59167;SDS011;70412;55.048;73.268;2024-02-28T07:01:18;23.65;;;9.30;;
59167;SDS011;70412;55.048;73.268;2024-02-28T07:04:34;19.43;;;8.53;;
59167;SDS011;70412;55.048;73.268;2024-02-28T07:07:38;17.13;;;7.88;;
59167;SDS011;70412;55.048;73.268;2024-02-28T07:10:40;22.88;;;8.98;;
59167;SDS011;70412;55.048;73.268;2024-02-28T07:13:45;20.23;;;8.15;;
59167;SDS011;70412;55.048;73.268;2024-02-28T07:16:47;22.30;;;9.50;;
59167;SDS011;70412;55.048;73.268;2024-02-28T07:19:50;21.90;;;10.02;;
59167;SDS011;70412;55.048;73.268;2024-02-28T07:22:53;30.02;;;12.88;;
59167;SDS011;70412;55.048;73.268;2024-02-28T07:25:55;37.10;;;15.93;;
59167;SDS011;70412;55.048;73.268;2024-02-28T07:28:58;22.58;;;10.35;;
59167;SDS011;70412;55.048;73.268;2024-02-28T07:32:01;57.08;;;18.35;;
59167;SDS011;70412;55.048;73.268;2024-02-28T07:35:04;22.45;;;9.43;;
59167;SDS011;70412;55.048;73.268;2024-02-28T07:38:07;19.95;;;8.93;;
59167;SDS011;70412;55.048;73.268;2024-02-28T07:41:10;16.50;;;7.30;;
59167;SDS011;70412;55.048;73.268;2024-02-28T07:44:13;29.20;;;11.70;;
59167;SDS011;70412;55.048;73.268;2024-02-28T07:47:16;51.42;;;17.65;;
59167;SDS011;70412;55.048;73.268;2024-02-28T07:50:18;26.95;;;10.65;;
59167;SDS011;70412;55.048;73.268;2024-02-28T07:53:21;26.05;;;9.50;;
59167;SDS011;70412;55.048;73.268;2024-02-28T07:56:23;14.52;;;5.95;;
59167;SDS011;70412;55.048;73.268;2024-02-28T07:59:25;19.02;;;7.45;;
59167;SDS011;70412;55.048;73.268;2024-02-28T08:02:28;57.50;;;18.05;;
59167;SDS011;70412;55.048;73.268;2024-02-28T08:05:30;16.45;;;7.10;;
59167;SDS011;70412;55.048;73.268;2024-02-28T08:08:35;12.35;;;6.30;;
59167;SDS011;70412;55.048;73.268;2024-02-28T08:11:38;26.10;;;10.35;;
59167;SDS011;70412;55.048;73.268;2024-02-28T08:14:45;17.96;;;7.91;;
59167;SDS011;70412;55.048;73.268;2024-02-28T08:17:47;24.05;;;10.50;;
59167;SDS011;70412;55.048;73.268;2024-02-28T08:20:50;23.02;;;8.93;;
59167;SDS011;70412;55.048;73.268;2024-02-28T08:23:54;16.63;;;5.93;;
59167;SDS011;70412;55.048;73.268;2024-02-28T08:26:57;17.90;;;8.13;;
59167;SDS011;70412;55.048;73.268;2024-02-28T08:30:03;24.60;;;11.10;;
59167;SDS011;70412;55.048;73.268;2024-02-28T08:33:07;22.20;;;10.43;;
59167;SDS011;70412;55.048;73.268;2024-02-28T08:36:12;45.13;;;21.63;;
59167;SDS011;70412;55.048;73.268;2024-02-28T08:39:14;19.25;;;7.90;;
59167;SDS011;70412;55.048;73.268;2024-02-28T08:42:17;19.77;;;8.73;;
59167;SDS011;70412;55.048;73.268;2024-02-28T08:45:20;24.02;;;8.98;;
59167;SDS011;70412;55.048;73.268;2024-02-28T08:48:22;31.83;;;13.88;;
59167;SDS011;70412;55.048;73.268;2024-02-28T08:51:25;21.77;;;8.82;;
59167;SDS011;70412;55.048;73.268;2024-02-28T08:54:28;19.63;;;8.00;;
59167;SDS011;70412;55.048;73.268;2024-02-28T08:57:31;67.65;;;32.33;;
59167;SDS011;70412;55.048;73.268;2024-02-28T09:00:33;33.08;;;14.82;;
59167;SDS011;70412;55.048;73.268;2024-02-28T09:03:38;25.38;;;11.45;;
59167;SDS011;70412;55.048;73.268;2024-02-28T09:06:43;26.27;;;11.40;;
59167;SDS011;70412;55.048;73.268;2024-02-28T09:09:46;25.73;;;10.30;;
59167;SDS011;70412;55.048;73.268;2024-02-28T09:12:52;18.27;;;6.97;;
59167;SDS011;70412;55.048;73.268;2024-02-28T09:15:55;15.05;;;6.65;;
59167;SDS011;70412;55.048;73.268;2024-02-28T09:18:57;19.95;;;8.65;;
59167;SDS011;70412;55.048;73.268;2024-02-28T09:22:03;53.97;;;22.27;;
59167;SDS011;70412;55.048;73.268;2024-02-28T09:25:05;18.30;;;7.28;;
59167;SDS011;70412;55.048;73.268;2024-02-28T09:28:10;14.88;;;6.95;;
59167;SDS011;70412;55.048;73.268;2024-02-28T09:31:15;14.18;;;5.90;;
59167;SDS011;70412;55.048;73.268;2024-02-28T09:34:18;24.40;;;9.52;;
59167;SDS011;70412;55.048;73.268;2024-02-28T09:37:20;11.93;;;5.75;;
59167;SDS011;70412;55.048;73.268;2024-02-28T09:40:25;15.40;;;6.07;;
59167;SDS011;70412;55.048;73.268;2024-02-28T09:43:29;17.00;;;6.03;;
59167;SDS011;70412;55.048;73.268;2024-02-28T09:46:33;15.07;;;4.97;;
59167;SDS011;70412;55.048;73.268;2024-02-28T09:49:36;13.15;;;5.93;;
59167;SDS011;70412;55.048;73.268;2024-02-28T09:52:39;15.07;;;5.82;;
59167;SDS011;70412;55.048;73.268;2024-02-28T09:55:41;14.60;;;5.88;;
59167;SDS011;70412;55.048;73.268;2024-02-28T09:58:45;26.75;;;9.10;;
59167;SDS011;70412;55.048;73.268;2024-02-28T10:01:51;14.75;;;5.47;;
59167;SDS011;70412;55.048;73.268;2024-02-28T10:04:59;22.75;;;7.85;;
59167;SDS011;70412;55.048;73.268;2024-02-28T10:08:02;23.67;;;9.20;;
59167;SDS011;70412;55.048;73.268;2024-02-28T10:11:06;21.45;;;7.55;;
59167;SDS011;70412;55.048;73.268;2024-02-28T10:14:09;18.63;;;7.10;;
59167;SDS011;70412;55.048;73.268;2024-02-28T10:17:11;19.02;;;7.25;;
59167;SDS011;70412;55.048;73.268;2024-02-28T10:20:15;27.33;;;9.45;;
59167;SDS011;70412;55.048;73.268;2024-02-28T10:23:17;13.90;;;5.43;;
59167;SDS011;70412;55.048;73.268;2024-02-28T10:26:20;13.50;;;5.68;;
59167;SDS011;70412;55.048;73.268;2024-02-28T10:29:25;13.05;;;6.05;;
59167;SDS011;70412;55.048;73.268;2024-02-28T10:32:30;9.98;;;3.90;;
59167;SDS011;70412;55.048;73.268;2024-02-28T10:35:37;11.20;;;5.32;;
59167;SDS011;70412;55.048;73.268;2024-02-28T10:38:40;13.55;;;5.20;;
59167;SDS011;70412;55.048;73.268;2024-02-28T10:41:44;10.90;;;4.72;;
59167;SDS011;70412;55.048;73.268;2024-02-28T10:44:49;20.13;;;6.85;;
59167;SDS011;70412;55.048;73.268;2024-02-28T10:47:53;10.93;;;4.95;;
59167;SDS011;70412;55.048;73.268;2024-02-28T10:50:56;15.98;;;6.68;;
59167;SDS011;70412;55.048;73.268;2024-02-28T10:54:10;11.40;;;5.10;;
59167;SDS011;70412;55.048;73.268;2024-02-28T10:57:14;20.42;;;7.45;;
59167;SDS011;70412;55.048;73.268;2024-02-28T11:00:19;30.63;;;16.30;;
59167;SDS011;70412;55.048;73.268;2024-02-28T11:03:22;42.88;;;13.88;;
59167;SDS011;70412;55.048;73.268;2024-02-28T11:06:24;21.00;;;6.40;;
59167;SDS011;70412;55.048;73.268;2024-02-28T11:09:28;237.02;;;49.28;;
59167;SDS011;70412;55.048;73.268;2024-02-28T11:15:40;32.67;;;13.57;;
59167;SDS011;70412;55.048;73.268;2024-02-28T11:18:49;21.90;;;8.32;;
59167;SDS011;70412;55.048;73.268;2024-02-28T11:22:05;14.65;;;6.10;;
59167;SDS011;70412;55.048;73.268;2024-02-28T11:25:08;11.43;;;4.15;;
59167;SDS011;70412;55.048;73.268;2024-02-28T11:28:35;10.20;;;4.90;;
59167;SDS011;70412;55.048;73.268;2024-02-28T11:31:37;12.95;;;6.20;;
59167;SDS011;70412;55.048;73.268;2024-02-28T11:34:40;12.68;;;5.43;;
59167;SDS011;70412;55.048;73.268;2024-02-28T11:37:44;13.35;;;5.30;;
59167;SDS011;70412;55.048;73.268;2024-02-28T11:40:49;11.23;;;4.80;;
59167;SDS011;70412;55.048;73.268;2024-02-28T11:43:52;19.67;;;7.28;;
59167;SDS011;70412;55.048;73.268;2024-02-28T11:46:55;24.88;;;10.25;;
59167;SDS011;70412;55.048;73.268;2024-02-28T11:50:06;17.85;;;8.23;;
59167;SDS011;70412;55.048;73.268;2024-02-28T11:53:09;21.55;;;9.63;;
59167;SDS011;70412;55.048;73.268;2024-02-28T11:56:11;16.13;;;5.72;;
59167;SDS011;70412;55.048;73.268;2024-02-28T11:59:19;15.60;;;6.50;;
59167;SDS011;70412;55.048;73.268;2024-02-28T12:02:22;14.55;;;6.60;;
59167;SDS011;70412;55.048;73.268;2024-02-28T12:05:29;20.08;;;5.72;;
59167;SDS011;70412;55.048;73.268;2024-02-28T12:08:31;15.27;;;6.75;;
59167;SDS011;70412;55.048;73.268;2024-02-28T12:11:35;16.88;;;8.93;;
59167;SDS011;70412;55.048;73.268;2024-02-28T12:14:38;14.65;;;7.70;;
59167;SDS011;70412;55.048;73.268;2024-02-28T12:17:43;21.85;;;8.50;;
59167;SDS011;70412;55.048;73.268;2024-02-28T12:20:59;18.93;;;7.30;;
59167;SDS011;70412;55.048;73.268;2024-02-28T12:24:15;57.00;;;15.70;;
59167;SDS011;70412;55.048;73.268;2024-02-28T12:27:17;20.73;;;8.00;;
59167;SDS011;70412;55.048;73.268;2024-02-28T12:30:42;40.35;;;16.00;;
59167;SDS011;70412;55.048;73.268;2024-02-28T12:33:58;43.60;;;14.63;;
59167;SDS011;70412;55.048;73.268;2024-02-28T12:37:01;118.47;;;43.90;;
59167;SDS011;70412;55.048;73.268;2024-02-28T12:40:06;154.60;;;53.47;;
59167;SDS011;70412;55.048;73.268;2024-02-28T12:43:22;59.35;;;18.05;;
59167;SDS011;70412;55.048;73.268;2024-02-28T12:46:27;30.13;;;11.80;;
59167;SDS011;70412;55.048;73.268;2024-02-28T12:49:29;51.63;;;20.95;;
59167;SDS011;70412;55.048;73.268;2024-02-28T12:52:44;52.60;;;24.10;;
59167;SDS011;70412;55.048;73.268;2024-02-28T12:55:46;34.00;;;14.70;;
59167;SDS011;70412;55.048;73.268;2024-02-28T12:58:49;36.47;;;14.00;;
59167;SDS011;70412;55.048;73.268;2024-02-28T13:01:54;32.67;;;10.98;;
59167;SDS011;70412;55.048;73.268;2024-02-28T13:04:57;30.08;;;11.13;;
59167;SDS011;70412;55.048;73.268;2024-02-28T13:08:00;37.80;;;15.88;;
59167;SDS011;70412;55.048;73.268;2024-02-28T13:11:03;23.98;;;11.02;;
59167;SDS011;70412;55.048;73.268;2024-02-28T13:14:06;21.05;;;8.75;;
59167;SDS011;70412;55.048;73.268;2024-02-28T13:17:10;16.38;;;7.32;;
59167;SDS011;70412;55.048;73.268;2024-02-28T13:20:24;21.88;;;9.68;;
59167;SDS011;70412;55.048;73.268;2024-02-28T13:23:27;27.38;;;9.95;;
59167;SDS011;70412;55.048;73.268;2024-02-28T13:26:30;35.20;;;11.10;;
59167;SDS011;70412;55.048;73.268;2024-02-28T13:29:45;66.28;;;23.17;;
59167;SDS011;70412;55.048;73.268;2024-02-28T13:32:48;97.43;;;32.55;;
59167;SDS011;70412;55.048;73.268;2024-02-28T13:36:07;163.90;;;47.35;;
59167;SDS011;70412;55.048;73.268;2024-02-28T13:39:11;119.13;;;42.33;;
59167;SDS011;70412;55.048;73.268;2024-02-28T13:42:16;58.85;;;15.02;;
59167;SDS011;70412;55.048;73.268;2024-02-28T13:45:21;506.75;;;128.73;;
59167;SDS011;70412;55.048;73.268;2024-02-28T13:48:24;532.58;;;113.35;;
59167;SDS011;70412;55.048;73.268;2024-02-28T13:51:26;26.02;;;9.45;;
59167;SDS011;70412;55.048;73.268;2024-02-28T13:54:29;90.53;;;35.22;;
59167;SDS011;70412;55.048;73.268;2024-02-28T13:57:32;597.38;;;123.43;;
59167;SDS011;70412;55.048;73.268;2024-02-28T14:00:35;119.00;;;25.02;;
59167;SDS011;70412;55.048;73.268;2024-02-28T14:03:37;31.27;;;11.52;;
59167;SDS011;70412;55.048;73.268;2024-02-28T14:06:40;32.38;;;8.68;;
59167;SDS011;70412;55.048;73.268;2024-02-28T14:09:54;155.10;;;35.45;;
59167;SDS011;70412;55.048;73.268;2024-02-28T14:12:58;141.20;;;35.17;;
59167;SDS011;70412;55.048;73.268;2024-02-28T14:16:01;120.20;;;28.42;;
59167;SDS011;70412;55.048;73.268;2024-02-28T14:19:04;32.08;;;10.18;;
59167;SDS011;70412;55.048;73.268;2024-02-28T14:22:07;85.65;;;31.67;;
59167;SDS011;70412;55.048;73.268;2024-02-28T14:25:12;267.38;;;74.38;;
59167;SDS011;70412;55.048;73.268;2024-02-28T14:28:16;71.41;;;25.44;;
59167;SDS011;70412;55.048;73.268;2024-02-28T14:31:22;53.50;;;17.48;;
59167;SDS011;70412;55.048;73.268;2024-02-28T14:34:26;115.72;;;29.13;;
59167;SDS011;70412;55.048;73.268;2024-02-28T14:37:36;56.08;;;19.92;;
59167;SDS011;70412;55.048;73.268;2024-02-28T14:40:41;100.15;;;27.63;;
59167;SDS011;70412;55.048;73.268;2024-02-28T14:43:44;56.75;;;18.15;;
59167;SDS011;70412;55.048;73.268;2024-02-28T14:46:46;44.53;;;14.95;;
59167;SDS011;70412;55.048;73.268;2024-02-28T14:49:49;72.78;;;21.48;;
59167;SDS011;70412;55.048;73.268;2024-02-28T14:52:53;123.90;;;31.80;;
59167;SDS011;70412;55.048;73.268;2024-02-28T14:55:56;38.97;;;15.75;;
59167;SDS011;70412;55.048;73.268;2024-02-28T14:58:58;39.38;;;16.10;;
59167;SDS011;70412;55.048;73.268;2024-02-28T15:02:13;57.85;;;21.15;;
59167;SDS011;70412;55.048;73.268;2024-02-28T15:05:16;57.65;;;18.73;;
59167;SDS011;70412;55.048;73.268;2024-02-28T15:08:19;61.00;;;18.30;;
59167;SDS011;70412;55.048;73.268;2024-02-28T15:11:23;547.20;;;130.50;;
59167;SDS011;70412;55.048;73.268;2024-02-28T15:14:25;420.35;;;97.35;;
59167;SDS011;70412;55.048;73.268;2024-02-28T15:17:28;395.20;;;108.38;;
59167;SDS011;70412;55.048;73.268;2024-02-28T15:20:31;125.65;;;39.20;;
59167;SDS011;70412;55.048;73.268;2024-02-28T15:23:33;73.25;;;23.42;;
59167;SDS011;70412;55.048;73.268;2024-02-28T15:26:36;220.73;;;50.63;;
59167;SDS011;70412;55.048;73.268;2024-02-28T15:29:39;104.25;;;28.45;;
59167;SDS011;70412;55.048;73.268;2024-02-28T15:32:44;87.07;;;26.20;;
59167;SDS011;70412;55.048;73.268;2024-02-28T15:35:59;40.65;;;11.70;;
59167;SDS011;70412;55.048;73.268;2024-02-28T15:39:04;54.55;;;15.35;;
59167;SDS011;70412;55.048;73.268;2024-02-28T15:42:10;33.33;;;11.20;;
59167;SDS011;70412;55.048;73.268;2024-02-28T15:45:14;33.65;;;12.13;;
59167;SDS011;70412;55.048;73.268;2024-02-28T15:48:19;54.13;;;15.75;;
59167;SDS011;70412;55.048;73.268;2024-02-28T15:51:22;42.08;;;12.82;;
59167;SDS011;70412;55.048;73.268;2024-02-28T15:54:25;79.43;;;21.38;;
59167;SDS011;70412;55.048;73.268;2024-02-28T15:57:29;40.08;;;12.25;;
59167;SDS011;70412;55.048;73.268;2024-02-28T16:00:31;36.95;;;12.02;;
59167;SDS011;70412;55.048;73.268;2024-02-28T16:03:34;33.88;;;10.48;;
59167;SDS011;70412;55.048;73.268;2024-02-28T16:06:39;33.30;;;10.98;;
59167;SDS011;70412;55.048;73.268;2024-02-28T16:09:42;102.32;;;28.02;;
59167;SDS011;70412;55.048;73.268;2024-02-28T16:12:45;63.92;;;16.80;;
59167;SDS011;70412;55.048;73.268;2024-02-28T16:15:47;125.45;;;39.20;;
59167;SDS011;70412;55.048;73.268;2024-02-28T16:18:50;102.85;;;28.92;;
59167;SDS011;70412;55.048;73.268;2024-02-28T16:21:53;43.78;;;14.18;;
59167;SDS011;70412;55.048;73.268;2024-02-28T16:24:55;49.03;;;14.43;;
59167;SDS011;70412;55.048;73.268;2024-02-28T16:27:58;47.30;;;13.85;;
59167;SDS011;70412;55.048;73.268;2024-02-28T16:31:02;25.58;;;8.98;;
59167;SDS011;70412;55.048;73.268;2024-02-28T16:34:05;49.97;;;12.98;;
59167;SDS011;70412;55.048;73.268;2024-02-28T16:37:07;37.70;;;11.50;;
59167;SDS011;70412;55.048;73.268;2024-02-28T16:40:10;35.65;;;11.93;;
59167;SDS011;70412;55.048;73.268;2024-02-28T16:43:14;31.90;;;10.63;;
59167;SDS011;70412;55.048;73.268;2024-02-28T16:46:16;41.13;;;13.23;;
59167;SDS011;70412;55.048;73.268;2024-02-28T16:49:42;35.90;;;12.10;;
59167;SDS011;70412;55.048;73.268;2024-02-28T16:52:45;33.15;;;9.85;;
59167;SDS011;70412;55.048;73.268;2024-02-28T16:55:47;32.70;;;10.77;;
59167;SDS011;70412;55.048;73.268;2024-02-28T16:58:50;43.20;;;14.57;;
59167;SDS011;70412;55.048;73.268;2024-02-28T17:01:53;46.28;;;11.35;;
59167;SDS011;70412;55.048;73.268;2024-02-28T17:04:56;27.70;;;8.55;;
59167;SDS011;70412;55.048;73.268;2024-02-28T17:07:58;28.42;;;7.70;;
59167;SDS011;70412;55.048;73.268;2024-02-28T17:11:02;28.45;;;8.57;;
59167;SDS011;70412;55.048;73.268;2024-02-28T17:14:05;49.35;;;13.00;;
59167;SDS011;70412;55.048;73.268;2024-02-28T17:17:07;40.97;;;11.98;;
59167;SDS011;70412;55.048;73.268;2024-02-28T17:20:13;33.27;;;8.13;;
59167;SDS011;70412;55.048;73.268;2024-02-28T17:23:17;31.60;;;10.38;;
59167;SDS011;70412;55.048;73.268;2024-02-28T17:26:19;80.97;;;19.27;;
59167;SDS011;70412;55.048;73.268;2024-02-28T17:29:22;69.90;;;19.25;;
59167;SDS011;70412;55.048;73.268;2024-02-28T17:32:24;41.33;;;10.98;;
59167;SDS011;70412;55.048;73.268;2024-02-28T17:35:30;31.20;;;8.25;;
59167;SDS011;70412;55.048;73.268;2024-02-28T17:38:33;40.65;;;11.23;;
59167;SDS011;70412;55.048;73.268;2024-02-28T17:41:37;22.73;;;7.90;;
59167;SDS011;70412;55.048;73.268;2024-02-28T17:44:39;36.05;;;10.40;;
59167;SDS011;70412;55.048;73.268;2024-02-28T17:47:42;34.58;;;9.65;;